Etusivu
METAR-TAF:

METAR-TAF

Lentoasemat :

Meiringen, Sveitsi

Leveyspiiri: 46-44-25N, Pituuspiiri: 8-06-36E, korkeus merenpinnasta: 577 m

Tämänhetkinen sää

Tämä raportti tehtiin 21 minuuttia sitten, kello 05.20 UTC
tyyntä
Lämpötila -2°C
Kosteus 93%
Ilmanpaine 1033 hPa
Näkyvyys: 9000 m

METAR: LSMM 240520Z AUTO 00000KT 9000NDV NCD M02/M03 Q1033 RMK

Aika: 06:41 (05:41 UTC)


TAF: puuttuu

Säähavainnot ja -ennusteet yli 4000 lentoasemalta (METAR- ja TAF-raportit).

Käytössä olevat sääasemat on merkitty karttaan keltaisilla ja punaisilla pisteillä.

Aseta hiiri pisteen päälle nähdäksesi sääaseman nimen.

Klikkaa sitten nähdäksesi säähavainnot ja -ennusteet.

Kartan vaihtaminen: klikkaa mustalla rastilla varustettuja vihreitä pisteitä, niin voit zoomata sisään; viivalla varustettua vihreää pistettä, niin voit zoomata ulos tai vihreitä nuolia, niin pääset viereisille kartoille.


METAR-TAF: